sensor_id;sensor_type;location;lat;lon;timestamp;pressure;altitude;pressure_sealevel;temperature;humidity
66164;BME280;52962;51.088;3.096;2022-09-04T00:02:20;101048.09;;;21.23;100.00
66164;BME280;52962;51.088;3.096;2022-09-04T00:05:00;101050.81;;;21.19;100.00
66164;BME280;52962;51.088;3.096;2022-09-04T00:07:36;101052.56;;;21.20;100.00
66164;BME280;52962;51.088;3.096;2022-09-04T00:10:10;101058.81;;;21.21;100.00
66164;BME280;52962;51.088;3.096;2022-09-04T00:12:45;101058.81;;;21.21;100.00
66164;BME280;52962;51.088;3.096;2022-09-04T00:15:18;101058.78;;;21.24;100.00
66164;BME280;52962;51.088;3.096;2022-09-04T00:17:53;101061.44;;;21.26;100.00
66164;BME280;52962;51.088;3.096;2022-09-04T00:20:29;101055.13;;;21.28;100.00
66164;BME280;52962;51.088;3.096;2022-09-04T00:23:05;101064.06;;;21.27;100.00
66164;BME280;52962;51.088;3.096;2022-09-04T00:25:40;101061.38;;;21.29;100.00
66164;BME280;52962;51.088;3.096;2022-09-04T00:28:17;101066.72;;;21.29;100.00
66164;BME280;52962;51.088;3.096;2022-09-04T00:30:51;101068.50;;;21.30;100.00
66164;BME280;52962;51.088;3.096;2022-09-04T00:33:29;101068.50;;;21.30;100.00
66164;BME280;52962;51.088;3.096;2022-09-04T00:36:01;101072.09;;;21.29;100.00
66164;BME280;52962;51.088;3.096;2022-09-04T00:38:37;101078.31;;;21.29;100.00
66164;BME280;52962;51.088;3.096;2022-09-04T00:41:14;101071.31;;;21.22;100.00
66164;BME280;52962;51.088;3.096;2022-09-04T00:44:00;101076.69;;;21.22;100.00
66164;BME280;52962;51.088;3.096;2022-09-04T00:50:11;101083.88;;;21.17;100.00
66164;BME280;52962;51.088;3.096;2022-09-04T00:52:59;101074.09;;;21.16;100.00
66164;BME280;52962;51.088;3.096;2022-09-04T00:55:46;101069.63;;;21.15;100.00
66164;BME280;52962;51.088;3.096;2022-09-04T00:58:33;101078.59;;;21.14;100.00
66164;BME280;52962;51.088;3.096;2022-09-04T01:01:09;101080.34;;;21.15;100.00
66164;BME280;52962;51.088;3.096;2022-09-04T01:06:34;101075.00;;;21.15;100.00
66164;BME280;52962;51.088;3.096;2022-09-04T01:09:31;101077.75;;;21.12;100.00
66164;BME280;52962;51.088;3.096;2022-09-04T01:12:10;101075.88;;;21.15;100.00
66164;BME280;52962;51.088;3.096;2022-09-04T01:14:41;101072.28;;;21.16;100.00
66164;BME280;52962;51.088;3.096;2022-09-04T01:17:27;101077.69;;;21.15;100.00
66164;BME280;52962;51.088;3.096;2022-09-04T01:20:04;101077.75;;;21.12;100.00
66164;BME280;52962;51.088;3.096;2022-09-04T01:22:51;101084.06;;;21.08;100.00
66164;BME280;52962;51.088;3.096;2022-09-04T01:25:49;101089.47;;;21.05;100.00
66164;BME280;52962;51.088;3.096;2022-09-04T01:28:25;101089.56;;;21.00;100.00
66164;BME280;52962;51.088;3.096;2022-09-04T01:30:59;101090.53;;;20.96;100.00
66164;BME280;52962;51.088;3.096;2022-09-04T01:33:29;101094.13;;;20.95;100.00
66164;BME280;52962;51.088;3.096;2022-09-04T01:36:05;101096.84;;;20.92;100.00
66164;BME280;52962;51.088;3.096;2022-09-04T01:38:39;101092.47;;;20.88;100.00
66164;BME280;52962;51.088;3.096;2022-09-04T01:41:15;101089.88;;;20.83;100.00
66164;BME280;52962;51.088;3.096;2022-09-04T01:43:45;101093.53;;;20.79;100.00
66164;BME280;52962;51.088;3.096;2022-09-04T01:49:10;101096.38;;;20.70;100.00
66164;BME280;52962;51.088;3.096;2022-09-04T01:51:46;101110.72;;;20.66;100.00
66164;BME280;52962;51.088;3.096;2022-09-04T01:54:30;101105.44;;;20.62;100.00
66164;BME280;52962;51.088;3.096;2022-09-04T01:57:09;101110.88;;;20.57;100.00
66164;BME280;52962;51.088;3.096;2022-09-04T01:59:55;101122.56;;;20.50;100.00
66164;BME280;52962;51.088;3.096;2022-09-04T02:02:34;101123.50;;;20.47;100.00
66164;BME280;52962;51.088;3.096;2022-09-04T02:05:16;101120.03;;;20.42;100.00
66164;BME280;52962;51.088;3.096;2022-09-04T02:07:47;101128.03;;;20.44;100.00
66164;BME280;52962;51.088;3.096;2022-09-04T02:10:27;101130.75;;;20.38;100.00
66164;BME280;52962;51.088;3.096;2022-09-04T02:13:08;101134.34;;;20.37;100.00
66164;BME280;52962;51.088;3.096;2022-09-04T02:15:49;101134.38;;;20.34;100.00
66164;BME280;52962;51.088;3.096;2022-09-04T02:18:33;101137.09;;;20.31;100.00
66164;BME280;52962;51.088;3.096;2022-09-04T02:21:15;101147.81;;;20.31;100.00
66164;BME280;52962;51.088;3.096;2022-09-04T02:23:51;101146.94;;;20.29;100.00
66164;BME280;52962;51.088;3.096;2022-09-04T02:26:28;101158.56;;;20.28;100.00
66164;BME280;52962;51.088;3.096;2022-09-04T02:29:02;101152.13;;;20.42;100.00
66164;BME280;52962;51.088;3.096;2022-09-04T02:31:35;101153.06;;;20.37;100.00
66164;BME280;52962;51.088;3.096;2022-09-04T02:34:17;101153.28;;;20.21;100.00
66164;BME280;52962;51.088;3.096;2022-09-04T02:36:52;101148.88;;;20.17;100.00
66164;BME280;52962;51.088;3.096;2022-09-04T02:39:26;101156.91;;;20.17;100.00
66164;BME280;52962;51.088;3.096;2022-09-04T02:42:03;101153.38;;;20.15;100.00
66164;BME280;52962;51.088;3.096;2022-09-04T02:44:43;101154.28;;;20.14;100.00
66164;BME280;52962;51.088;3.096;2022-09-04T02:47:22;101163.19;;;20.15;100.00
66164;BME280;52962;51.088;3.096;2022-09-04T02:49:58;101152.44;;;20.18;100.00
66164;BME280;52962;51.088;3.096;2022-09-04T02:52:43;101161.81;;;20.49;100.00
66164;BME280;52962;51.088;3.096;2022-09-04T02:55:25;101166.28;;;20.49;100.00
66164;BME280;52962;51.088;3.096;2022-09-04T02:58:06;101162.72;;;20.48;100.00
66164;BME280;52962;51.088;3.096;2022-09-04T03:00:47;101161.00;;;20.46;100.00
66164;BME280;52962;51.088;3.096;2022-09-04T03:03:26;101162.88;;;20.36;100.00
66164;BME280;52962;51.088;3.096;2022-09-04T03:06:03;101162.91;;;20.35;100.00
66164;BME280;52962;51.088;3.096;2022-09-04T03:08:37;101161.25;;;20.24;100.00
66164;BME280;52962;51.088;3.096;2022-09-04T03:11:11;101165.69;;;20.27;100.00
66164;BME280;52962;51.088;3.096;2022-09-04T03:13:47;101163.84;;;20.31;100.00
66164;BME280;52962;51.088;3.096;2022-09-04T03:16:21;101170.34;;;20.13;100.00
66164;BME280;52962;51.088;3.096;2022-09-04T03:19:04;101169.56;;;20.05;100.00
66164;BME280;52962;51.088;3.096;2022-09-04T03:21:39;101173.91;;;20.13;100.00
66164;BME280;52962;51.088;3.096;2022-09-04T03:24:12;101174.94;;;20.03;100.00
66164;BME280;52962;51.088;3.096;2022-09-04T03:26:45;101174.97;;;20.00;100.00
66164;BME280;52962;51.088;3.096;2022-09-04T03:29:24;101177.69;;;19.97;100.00
66164;BME280;52962;51.088;3.096;2022-09-04T03:32:02;101178.53;;;19.99;100.00
66164;BME280;52962;51.088;3.096;2022-09-04T03:34:47;101180.34;;;19.97;100.00
66164;BME280;52962;51.088;3.096;2022-09-04T03:37:34;101177.75;;;19.91;100.00
66164;BME280;52962;51.088;3.096;2022-09-04T03:45:56;101184.06;;;19.85;100.00
66164;BME280;52962;51.088;3.096;2022-09-04T03:48:51;101179.66;;;19.83;100.00
66164;BME280;52962;51.088;3.096;2022-09-04T03:51:28;101179.69;;;19.78;100.00
66164;BME280;52962;51.088;3.096;2022-09-04T03:54:07;101188.56;;;19.82;100.00
66164;BME280;52962;51.088;3.096;2022-09-04T03:56:59;101186.75;;;19.84;100.00
66164;BME280;52962;51.088;3.096;2022-09-04T03:59:53;101193.94;;;19.80;100.00
66164;BME280;52962;51.088;3.096;2022-09-04T04:02:29;101198.34;;;19.84;100.00
66164;BME280;52962;51.088;3.096;2022-09-04T04:05:28;101195.75;;;19.77;100.00
66164;BME280;52962;51.088;3.096;2022-09-04T04:08:20;101198.50;;;19.74;100.00
66164;BME280;52962;51.088;3.096;2022-09-04T04:10:58;101199.34;;;19.76;100.00
66164;BME280;52962;51.088;3.096;2022-09-04T04:13:49;101205.59;;;19.75;100.00
66164;BME280;52962;51.088;3.096;2022-09-04T04:16:30;101209.19;;;19.74;100.00
66164;BME280;52962;51.088;3.096;2022-09-04T04:22:17;101196.78;;;19.67;100.00
66164;BME280;52962;51.088;3.096;2022-09-04T04:24:59;101196.84;;;19.61;100.00
66164;BME280;52962;51.088;3.096;2022-09-04T04:27:47;101204.03;;;19.55;100.00
66164;BME280;52962;51.088;3.096;2022-09-04T04:30:19;101202.22;;;19.57;100.00
66164;BME280;52962;51.088;3.096;2022-09-04T04:33:18;101202.31;;;19.48;100.00
66164;BME280;52962;51.088;3.096;2022-09-04T04:35:55;101210.31;;;19.48;100.00
66164;BME280;52962;51.088;3.096;2022-09-04T04:38:39;101214.78;;;19.48;100.00
66164;BME280;52962;51.088;3.096;2022-09-04T04:41:26;101211.25;;;19.44;100.00
66164;BME280;52962;51.088;3.096;2022-09-04T04:44:06;101209.47;;;19.43;100.00
66164;BME280;52962;51.088;3.096;2022-09-04T04:46:50;101222.00;;;19.38;100.00
66164;BME280;52962;51.088;3.096;2022-09-04T04:49:42;101218.44;;;19.36;100.00
66164;BME280;52962;51.088;3.096;2022-09-04T04:52:22;101219.34;;;19.37;100.00
66164;BME280;52962;51.088;3.096;2022-09-04T04:55:01;101224.72;;;19.32;100.00
66164;BME280;52962;51.088;3.096;2022-09-04T04:57:39;101220.28;;;19.31;100.00
66164;BME280;52962;51.088;3.096;2022-09-04T05:00:10;101222.94;;;19.31;100.00
66164;BME280;52962;51.088;3.096;2022-09-04T05:02:47;101217.63;;;19.28;100.00
66164;BME280;52962;51.088;3.096;2022-09-04T05:05:39;101229.25;;;19.24;100.00
66164;BME280;52962;51.088;3.096;2022-09-04T05:08:17;101229.25;;;19.24;100.00
66164;BME280;52962;51.088;3.096;2022-09-04T05:10:53;101231.03;;;19.23;100.00
66164;BME280;52962;51.088;3.096;2022-09-04T05:13:26;101241.72;;;19.22;100.00
66164;BME280;52962;51.088;3.096;2022-09-04T05:16:02;101242.63;;;19.21;100.00
66164;BME280;52962;51.088;3.096;2022-09-04T05:18:42;101245.28;;;19.21;100.00
66164;BME280;52962;51.088;3.096;2022-09-04T05:21:17;101248.84;;;19.23;100.00
66164;BME280;52962;51.088;3.096;2022-09-04T05:23:50;101241.72;;;19.22;100.00
66164;BME280;52962;51.088;3.096;2022-09-04T05:26:28;101248.81;;;19.26;100.00
66164;BME280;52962;51.088;3.096;2022-09-04T05:29:03;101249.66;;;19.31;100.00
66164;BME280;52962;51.088;3.096;2022-09-04T05:31:41;101247.84;;;19.35;100.00
66164;BME280;52962;51.088;3.096;2022-09-04T05:34:17;101254.00;;;19.41;100.00
66164;BME280;52962;51.088;3.096;2022-09-04T05:36:56;101252.19;;;19.45;100.00
66164;BME280;52962;51.088;3.096;2022-09-04T05:39:28;101259.25;;;19.50;100.00
66164;BME280;52962;51.088;3.096;2022-09-04T05:42:30;101265.50;;;19.51;100.00
66164;BME280;52962;51.088;3.096;2022-09-04T05:45:12;101257.47;;;19.55;100.00
66164;BME280;52962;51.088;3.096;2022-09-04T05:47:53;101266.31;;;19.61;100.00
66164;BME280;52962;51.088;3.096;2022-09-04T05:51:00;101267.16;;;19.66;100.00
66164;BME280;52962;51.088;3.096;2022-09-04T06:00:04;101275.13;;;19.70;100.00
66164;BME280;52962;51.088;3.096;2022-09-04T06:02:57;101286.69;;;19.72;100.00
66164;BME280;52962;51.088;3.096;2022-09-04T06:05:42;101285.69;;;19.79;100.00
66164;BME280;52962;51.088;3.096;2022-09-04T06:08:23;101286.59;;;19.78;100.00
66164;BME280;52962;51.088;3.096;2022-09-04T06:11:04;101292.00;;;19.75;100.00
66164;BME280;52962;51.088;3.096;2022-09-04T06:13:50;101288.50;;;19.70;100.00
66164;BME280;52962;51.088;3.096;2022-09-04T06:16:43;101285.88;;;19.66;100.00
66164;BME280;52962;51.088;3.096;2022-09-04T06:19:40;101288.53;;;19.67;100.00
66164;BME280;52962;51.088;3.096;2022-09-04T06:22:30;101286.69;;;19.71;100.00
66164;BME280;52962;51.088;3.096;2022-09-04T06:25:24;101284.00;;;19.74;100.00
66164;BME280;52962;51.088;3.096;2022-09-04T06:28:11;101284.91;;;19.71;100.00
66164;BME280;52962;51.088;3.096;2022-09-04T06:30:47;101284.00;;;19.74;100.00
66164;BME280;52962;51.088;3.096;2022-09-04T06:33:28;101291.94;;;19.77;100.00
66164;BME280;52962;51.088;3.096;2022-09-04T06:36:22;101299.91;;;19.83;100.00
66164;BME280;52962;51.088;3.096;2022-09-04T06:39:07;101298.06;;;19.88;100.00
66164;BME280;52962;51.088;3.096;2022-09-04T06:41:49;101298.91;;;19.93;100.00
66164;BME280;52962;51.088;3.096;2022-09-04T06:44:30;101298.84;;;19.99;100.00
66164;BME280;52962;51.088;3.096;2022-09-04T06:47:10;101308.56;;;20.06;100.00
66164;BME280;52962;51.088;3.096;2022-09-04T06:49:54;101299.59;;;20.12;100.00
66164;BME280;52962;51.088;3.096;2022-09-04T06:52:29;101299.53;;;20.16;100.00
66164;BME280;52962;51.088;3.096;2022-09-04T06:55:11;101308.41;;;20.21;100.00
66164;BME280;52962;51.088;3.096;2022-09-04T06:57:56;101300.28;;;20.29;100.00
66164;BME280;52962;51.088;3.096;2022-09-04T07:00:31;101302.94;;;20.31;100.00
66164;BME280;52962;51.088;3.096;2022-09-04T07:03:17;101303.75;;;20.37;100.00
66164;BME280;52962;51.088;3.096;2022-09-04T07:05:53;101304.59;;;20.44;100.00
66164;BME280;52962;51.088;3.096;2022-09-04T07:08:35;101304.53;;;20.47;100.00
66164;BME280;52962;51.088;3.096;2022-09-04T07:11:16;101307.13;;;20.53;100.00
66164;BME280;52962;51.088;3.096;2022-09-04T07:17:02;101317.63;;;20.68;100.00
66164;BME280;52962;51.088;3.096;2022-09-04T07:19:52;101317.75;;;20.61;100.00
66164;BME280;52962;51.088;3.096;2022-09-04T07:22:38;101318.59;;;20.64;100.00
66164;BME280;52962;51.088;3.096;2022-09-04T07:25:15;101316.72;;;20.69;100.00
66164;BME280;52962;51.088;3.096;2022-09-04T07:27:58;101318.50;;;20.70;100.00
66164;BME280;52962;51.088;3.096;2022-09-04T07:30:31;101327.38;;;20.74;100.00
66164;BME280;52962;51.088;3.096;2022-09-04T07:33:06;101348.72;;;20.78;100.00
66164;BME280;52962;51.088;3.096;2022-09-04T07:35:41;101346.88;;;20.80;100.00
66164;BME280;52962;51.088;3.096;2022-09-04T07:38:20;101345.03;;;20.85;100.00
66164;BME280;52962;51.088;3.096;2022-09-04T07:40:54;101344.03;;;20.93;100.00
66164;BME280;52962;51.088;3.096;2022-09-04T07:43:31;101342.22;;;20.95;100.00
66164;BME280;52962;51.088;3.096;2022-09-04T07:46:11;101344.81;;;21.01;100.00
66164;BME280;52962;51.088;3.096;2022-09-04T07:48:48;101354.41;;;21.15;100.00
66164;BME280;52962;51.088;3.096;2022-09-04T07:51:21;101344.47;;;21.25;100.00
66164;BME280;52962;51.088;3.096;2022-09-04T07:57:17;101349.53;;;21.43;100.00
66164;BME280;52962;51.088;3.096;2022-09-04T08:00:01;101349.50;;;21.46;100.00
66164;BME280;52962;51.088;3.096;2022-09-04T08:02:50;101355.59;;;21.56;100.00
66164;BME280;52962;51.088;3.096;2022-09-04T08:05:23;101357.03;;;21.75;100.00
66164;BME280;52962;51.088;3.096;2022-09-04T08:11:07;101361.09;;;21.96;100.00
66164;BME280;52962;51.088;3.096;2022-09-04T08:13:56;101359.34;;;21.95;100.00
66164;BME280;52962;51.088;3.096;2022-09-04T08:16:32;101363.69;;;22.04;100.00
66164;BME280;52962;51.088;3.096;2022-09-04T08:19:14;101369.84;;;22.09;100.00
66164;BME280;52962;51.088;3.096;2022-09-04T08:21:48;101370.72;;;22.09;100.00
66164;BME280;52962;51.088;3.096;2022-09-04T08:24:43;101364.09;;;22.29;100.00
66164;BME280;52962;51.088;3.096;2022-09-04T08:27:34;101369.63;;;22.19;100.00
66164;BME280;52962;51.088;3.096;2022-09-04T08:30:11;101371.78;;;22.47;100.00
66164;BME280;52962;51.088;3.096;2022-09-04T08:33:03;101360.00;;;22.54;100.00
66164;BME280;52962;51.088;3.096;2022-09-04T08:35:46;101372.25;;;22.67;100.00
66164;BME280;52962;51.088;3.096;2022-09-04T08:38:41;101378.50;;;22.68;100.00
66164;BME280;52962;51.088;3.096;2022-09-04T08:44:33;101385.03;;;22.98;100.00
66164;BME280;52962;51.088;3.096;2022-09-04T08:47:27;101380.38;;;23.06;100.00
66164;BME280;52962;51.088;3.096;2022-09-04T08:50:12;101381.09;;;23.12;100.00
66164;BME280;52962;51.088;3.096;2022-09-04T08:53:13;101387.09;;;23.25;100.00
66164;BME280;52962;51.088;3.096;2022-09-04T08:56:04;101383.19;;;23.38;100.00
66164;BME280;52962;51.088;3.096;2022-09-04T09:02:16;101390.72;;;23.61;100.00
66164;BME280;52962;51.088;3.096;2022-09-04T09:08:29;101386.00;;;23.71;100.00
66164;BME280;52962;51.088;3.096;2022-09-04T09:11:41;101384.84;;;23.81;100.00
66164;BME280;52962;51.088;3.096;2022-09-04T09:14:53;101381.66;;;23.99;100.00
66164;BME280;52962;51.088;3.096;2022-09-04T09:17:52;101384.84;;;24.13;100.00
66164;BME280;52962;51.088;3.096;2022-09-04T09:20:27;101381.88;;;24.24;100.00
66164;BME280;52962;51.088;3.096;2022-09-04T09:23:14;101384.63;;;24.21;100.00
66164;BME280;52962;51.088;3.096;2022-09-04T09:25:58;101384.28;;;24.35;100.00
66164;BME280;52962;51.088;3.096;2022-09-04T09:29:07;101378.75;;;24.41;100.00
66164;BME280;52962;51.088;3.096;2022-09-04T09:41:16;101373.97;;;24.82;100.00
66164;BME280;52962;51.088;3.096;2022-09-04T09:47:31;101379.69;;;25.28;100.00
66164;BME280;52962;51.088;3.096;2022-09-04T09:50:28;101367.53;;;25.43;100.00
66164;BME280;52962;51.088;3.096;2022-09-04T09:53:24;101374.78;;;25.69;100.00
66164;BME280;52962;51.088;3.096;2022-09-04T09:56:23;101372.50;;;25.83;100.00
66164;BME280;52962;51.088;3.096;2022-09-04T09:59:30;101370.63;;;26.60;100.00
66164;BME280;52962;51.088;3.096;2022-09-04T10:02:20;101373.38;;;27.05;100.00
66164;BME280;52962;51.088;3.096;2022-09-04T10:08:14;101381.69;;;27.44;100.00
66164;BME280;52962;51.088;3.096;2022-09-04T10:11:18;101372.69;;;26.77;100.00
66164;BME280;52962;51.088;3.096;2022-09-04T10:14:06;101382.97;;;26.67;100.00
66164;BME280;52962;51.088;3.096;2022-09-04T10:17:04;101382.47;;;26.56;100.00
66164;BME280;52962;51.088;3.096;2022-09-04T10:20:15;101383.13;;;26.62;100.00
66164;BME280;52962;51.088;3.096;2022-09-04T10:23:21;101386.72;;;26.63;100.00
66164;BME280;52962;51.088;3.096;2022-09-04T10:29:21;101376.03;;;26.83;100.00
66164;BME280;52962;51.088;3.096;2022-09-04T10:35:21;101382.06;;;26.90;100.00
66164;BME280;52962;51.088;3.096;2022-09-04T10:38:13;101377.44;;;26.93;100.00
66164;BME280;52962;51.088;3.096;2022-09-04T10:41:11;101387.72;;;27.07;100.00
66164;BME280;52962;51.088;3.096;2022-09-04T10:44:00;101385.28;;;27.01;100.00
66164;BME280;52962;51.088;3.096;2022-09-04T10:46:36;101378.78;;;27.05;100.00
66164;BME280;52962;51.088;3.096;2022-09-04T10:49:17;101380.59;;;27.04;100.00
66164;BME280;52962;51.088;3.096;2022-09-04T10:55:02;101384.19;;;27.05;100.00
66164;BME280;52962;51.088;3.096;2022-09-04T10:57:50;101376.22;;;27.02;100.00
66164;BME280;52962;51.088;3.096;2022-09-04T11:00:21;101373.38;;;27.05;100.00
66164;BME280;52962;51.088;3.096;2022-09-04T11:03:19;101379.19;;;26.94;100.00
66164;BME280;52962;51.088;3.096;2022-09-04T11:09:45;101376.16;;;27.25;100.00
66164;BME280;52962;51.088;3.096;2022-09-04T11:12:31;101380.44;;;27.31;100.00
66164;BME280;52962;51.088;3.096;2022-09-04T11:15:44;101377.66;;;27.32;100.00
66164;BME280;52962;51.088;3.096;2022-09-04T11:18:45;101375.03;;;27.31;100.00
66164;BME280;52962;51.088;3.096;2022-09-04T11:21:52;101386.66;;;27.33;100.00
66164;BME280;52962;51.088;3.096;2022-09-04T11:30:44;101380.69;;;27.47;100.00
66164;BME280;52962;51.088;3.096;2022-09-04T11:33:49;101381.31;;;27.31;100.00
66164;BME280;52962;51.088;3.096;2022-09-04T11:36:42;101384.03;;;27.31;100.00
66164;BME280;52962;51.088;3.096;2022-09-04T11:40:01;101384.28;;;27.47;100.00
66164;BME280;52962;51.088;3.096;2022-09-04T11:42:38;101391.13;;;27.56;100.00
66164;BME280;52962;51.088;3.096;2022-09-04T11:45:34;101381.13;;;27.58;100.00
66164;BME280;52962;51.088;3.096;2022-09-04T11:51:31;101385.59;;;27.59;100.00
66164;BME280;52962;51.088;3.096;2022-09-04T11:54:28;101376.22;;;27.46;100.00
66164;BME280;52962;51.088;3.096;2022-09-04T11:57:11;101386.84;;;27.50;100.00
66164;BME280;52962;51.088;3.096;2022-09-04T12:00:01;101381.19;;;27.56;100.00
66164;BME280;52962;51.088;3.096;2022-09-04T12:02:59;101385.59;;;27.59;100.00
66164;BME280;52962;51.088;3.096;2022-09-04T12:09:00;101383.19;;;27.29;100.00
66164;BME280;52962;51.088;3.096;2022-09-04T12:12:09;101391.38;;;27.50;100.00
66164;BME280;52962;51.088;3.096;2022-09-04T12:14:54;101400.06;;;27.58;100.00
66164;BME280;52962;51.088;3.096;2022-09-04T12:17:51;101399.13;;;27.59;100.00
66164;BME280;52962;51.088;3.096;2022-09-04T12:20:56;101401.66;;;27.63;100.00
66164;BME280;52962;51.088;3.096;2022-09-04T12:23:41;101397.69;;;27.72;100.00
66164;BME280;52962;51.088;3.096;2022-09-04T12:29:47;101401.66;;;27.63;100.00
66164;BME280;52962;51.088;3.096;2022-09-04T12:35:44;101405.19;;;27.87;100.00
66164;BME280;52962;51.088;3.096;2022-09-04T12:38:36;101419.03;;;27.80;100.00
66164;BME280;52962;51.088;3.096;2022-09-04T12:41:14;101410.78;;;27.83;100.00
66164;BME280;52962;51.088;3.096;2022-09-04T12:43:56;101412.22;;;27.91;100.00
66164;BME280;52962;51.088;3.096;2022-09-04T12:49:37;101403.59;;;27.82;100.00
66164;BME280;52962;51.088;3.096;2022-09-04T12:52:13;101408.53;;;27.72;100.00
66164;BME280;52962;51.088;3.096;2022-09-04T12:54:52;101412.25;;;27.70;100.00
66164;BME280;52962;51.088;3.096;2022-09-04T12:57:37;101408.03;;;27.62;100.00
66164;BME280;52962;51.088;3.096;2022-09-04T13:00:13;101416.09;;;27.64;100.00
66164;BME280;52962;51.088;3.096;2022-09-04T13:02:54;101423.47;;;27.59;100.00
66164;BME280;52962;51.088;3.096;2022-09-04T13:05:52;101419.28;;;27.74;100.00
66164;BME280;52962;51.088;3.096;2022-09-04T13:08:38;101418.91;;;27.83;100.00
66164;BME280;52962;51.088;3.096;2022-09-04T13:11:17;101417.63;;;27.91;100.00
66164;BME280;52962;51.088;3.096;2022-09-04T13:13:54;101423.34;;;28.06;100.00
66164;BME280;52962;51.088;3.096;2022-09-04T13:16:36;101416.25;;;28.23;100.00
66164;BME280;52962;51.088;3.096;2022-09-04T13:19:14;101419.38;;;28.13;100.00
66164;BME280;52962;51.088;3.096;2022-09-04T13:22:09;101421.84;;;27.98;100.00
66164;BME280;52962;51.088;3.096;2022-09-04T13:24:49;101422.84;;;27.96;100.00
66164;BME280;52962;51.088;3.096;2022-09-04T13:27:28;101420.31;;;28.12;100.00
66164;BME280;52962;51.088;3.096;2022-09-04T13:30:04;101422.22;;;28.10;100.00
66164;BME280;52962;51.088;3.096;2022-09-04T13:32:46;101421.91;;;27.97;100.00
66164;BME280;52962;51.088;3.096;2022-09-04T13:35:26;101427.50;;;27.92;100.00
66164;BME280;52962;51.088;3.096;2022-09-04T13:38:17;101421.72;;;28.02;100.00
66164;BME280;52962;51.088;3.096;2022-09-04T13:44:37;101424.44;;;28.22;99.79
66164;BME280;52962;51.088;3.096;2022-09-04T13:47:12;101428.94;;;28.21;100.00
66164;BME280;52962;51.088;3.096;2022-09-04T13:49:47;101427.38;;;28.16;100.00
66164;BME280;52962;51.088;3.096;2022-09-04T13:52:28;101422.91;;;28.15;96.02
66164;BME280;52962;51.088;3.096;2022-09-04T13:55:01;101415.09;;;28.29;100.00
66164;BME280;52962;51.088;3.096;2022-09-04T13:57:37;101423.28;;;28.27;100.00
66164;BME280;52962;51.088;3.096;2022-09-04T14:00:09;101422.41;;;28.27;100.00
66164;BME280;52962;51.088;3.096;2022-09-04T14:02:37;101418.09;;;28.21;100.00
66164;BME280;52962;51.088;3.096;2022-09-04T14:05:12;101419.94;;;28.21;99.16
66164;BME280;52962;51.088;3.096;2022-09-04T14:07:46;101419.97;;;28.41;94.87
66164;BME280;52962;51.088;3.096;2022-09-04T14:10:17;101419.88;;;28.63;100.00
66164;BME280;52962;51.088;3.096;2022-09-04T14:13:02;101416.44;;;28.59;99.74
66164;BME280;52962;51.088;3.096;2022-09-04T14:15:56;101417.69;;;28.71;96.82
66164;BME280;52962;51.088;3.096;2022-09-04T14:18:44;101423.00;;;28.54;92.23
66164;BME280;52962;51.088;3.096;2022-09-04T14:21:22;101420.22;;;28.55;99.44
66164;BME280;52962;51.088;3.096;2022-09-04T14:24:05;101417.56;;;28.74;82.24
66164;BME280;52962;51.088;3.096;2022-09-04T14:26:41;101422.38;;;28.88;95.30
66164;BME280;52962;51.088;3.096;2022-09-04T14:29:18;101418.03;;;28.84;94.47
66164;BME280;52962;51.088;3.096;2022-09-04T14:31:59;101415.84;;;28.92;84.47
66164;BME280;52962;51.088;3.096;2022-09-04T14:34:42;101418.28;;;28.98;91.01
66164;BME280;52962;51.088;3.096;2022-09-04T14:37:32;101403.34;;;29.08;70.55
66164;BME280;52962;51.088;3.096;2022-09-04T14:40:07;101401.31;;;29.30;87.83
66164;BME280;52962;51.088;3.096;2022-09-04T14:42:44;101398.44;;;29.34;86.88
66164;BME280;52962;51.088;3.096;2022-09-04T14:45:27;101397.06;;;29.44;84.74
66164;BME280;52962;51.088;3.096;2022-09-04T14:47:59;101391.75;;;29.41;86.87
66164;BME280;52962;51.088;3.096;2022-09-04T14:50:32;101386.34;;;29.41;85.03
66164;BME280;52962;51.088;3.096;2022-09-04T14:53:10;101388.84;;;29.45;57.10
66164;BME280;52962;51.088;3.096;2022-09-04T14:58:53;101395.59;;;29.55;79.93
66164;BME280;52962;51.088;3.096;2022-09-04T15:01:24;101391.47;;;29.66;76.38
66164;BME280;52962;51.088;3.096;2022-09-04T15:04:00;101394.50;;;29.77;76.36
66164;BME280;52962;51.088;3.096;2022-09-04T15:06:34;101389.97;;;29.77;70.69
66164;BME280;52962;51.088;3.096;2022-09-04T15:09:34;101388.34;;;29.73;66.99
66164;BME280;52962;51.088;3.096;2022-09-04T15:12:15;101396.16;;;29.62;57.79
66164;BME280;52962;51.088;3.096;2022-09-04T15:14:55;101394.81;;;29.71;62.17
66164;BME280;52962;51.088;3.096;2022-09-04T15:17:30;101389.94;;;29.60;68.94
66164;BME280;52962;51.088;3.096;2022-09-04T15:20:04;101385.75;;;29.53;59.84
66164;BME280;52962;51.088;3.096;2022-09-04T15:22:37;101392.81;;;29.38;57.74
66164;BME280;52962;51.088;3.096;2022-09-04T15:25:30;101391.91;;;29.38;67.17
66164;BME280;52962;51.088;3.096;2022-09-04T15:28:24;101386.06;;;29.47;69.17
66164;BME280;52962;51.088;3.096;2022-09-04T15:31:03;101388.25;;;29.57;62.00
66164;BME280;52962;51.088;3.096;2022-09-04T15:33:41;101383.09;;;29.70;66.90
66164;BME280;52962;51.088;3.096;2022-09-04T15:36:14;101396.03;;;29.82;65.28
66164;BME280;52962;51.088;3.096;2022-09-04T15:38:52;101384.03;;;30.05;55.07
66164;BME280;52962;51.088;3.096;2022-09-04T15:41:33;101387.66;;;30.21;62.47
66164;BME280;52962;51.088;3.096;2022-09-04T15:44:12;101386.84;;;30.19;62.09